N217JR PABR-PABR
Flight info
| Callsign | N217JR |
|---|---|
| Flight time | 0h 4m |
| Altitude | 7500 |
| Route | VFR |
| Aircraft | P28A/L-VGDW/C |
Departure
| Time | 2026-04-23 19:39 |
|---|---|
| Airport | Wiley Post Will Rogers Memorial Airport (PABR) |
Arrival
| Time | 2026-04-23 19:43 |
|---|---|
| Airport | Wiley Post Will Rogers Memorial Airport (PABR) |
| Time | Latitude | Longitude | Altitude | Speed | Heading |
|---|---|---|---|---|---|
| 2026-04-23 18:52 | 71.28740 | -156.76570 | 47 ft | 0 kts | 24° |
| 2026-04-23 19:35 | 71.28740 | -156.76541 | 47 ft | 3 kts | 132° |
| 2026-04-23 19:36 | 71.28715 | -156.76612 | 47 ft | 9 kts | 257° |
| 2026-04-23 19:36 | 71.28701 | -156.76866 | 47 ft | 17 kts | 262° |
| 2026-04-23 19:36 | 71.28693 | -156.77289 | 47 ft | 21 kts | 254° |
| 2026-04-23 19:36 | 71.28688 | -156.77716 | 47 ft | 13 kts | 226° |
| 2026-04-23 19:37 | 71.28641 | -156.77692 | 47 ft | 0 kts | 137° |
| 2026-04-23 19:38 | 71.28631 | -156.77664 | 47 ft | 8 kts | 139° |
| 2026-04-23 19:38 | 71.28574 | -156.77524 | 49 ft | 8 kts | 141° |
| 2026-04-23 19:38 | 71.28548 | -156.77363 | 48 ft | 17 kts | 96° |
| 2026-04-23 19:38 | 71.28528 | -156.76332 | 56 ft | 74 kts | 91° |
| 2026-04-23 19:39 | 71.28528 | -156.74587 | 256 ft | 83 kts | 85° |
| 2026-04-23 19:39 | 71.28531 | -156.72776 | 537 ft | 86 kts | 87° |
| 2026-04-23 19:39 | 71.28517 | -156.70983 | 742 ft | 79 kts | 89° |
| 2026-04-23 19:39 | 71.28498 | -156.69312 | 897 ft | 77 kts | 89° |
| 2026-04-23 19:40 | 71.28722 | -156.67889 | 956 ft | 79 kts | 47° |
| 2026-04-23 19:40 | 71.29305 | -156.67705 | 957 ft | 100 kts | 346° |
| 2026-04-23 19:40 | 71.29807 | -156.69253 | 939 ft | 107 kts | 321° |
| 2026-04-23 19:40 | 71.30206 | -156.71176 | 998 ft | 107 kts | 296° |
| 2026-04-23 19:41 | 71.30287 | -156.73505 | 1041 ft | 110 kts | 270° |
| 2026-04-23 19:41 | 71.30229 | -156.75884 | 1048 ft | 110 kts | 262° |
| 2026-04-23 19:41 | 71.30113 | -156.78196 | 1083 ft | 107 kts | 259° |
| 2026-04-23 19:41 | 71.29995 | -156.80411 | 1118 ft | 99 kts | 258° |
| 2026-04-23 19:42 | 71.29773 | -156.82315 | 981 ft | 88 kts | 223° |
| 2026-04-23 19:42 | 71.29302 | -156.83056 | 774 ft | 70 kts | 175° |
| 2026-04-23 19:42 | 71.28843 | -156.82991 | 609 ft | 62 kts | 143° |
| 2026-04-23 19:42 | 71.28564 | -156.82207 | 481 ft | 52 kts | 104° |
| 2026-04-23 19:43 | 71.28544 | -156.81126 | 336 ft | 50 kts | 79° |
| 2026-04-23 19:43 | 71.28543 | -156.80042 | 226 ft | 50 kts | 80° |
| 2026-04-23 19:43 | 71.28547 | -156.78950 | 118 ft | 49 kts | 81° |
| 2026-04-23 19:43 | 71.28548 | -156.77973 | 60 ft | 40 kts | 79° |
| 2026-04-23 19:44 | 71.28547 | -156.77350 | 48 ft | 23 kts | 91° |
| 2026-04-23 19:44 | 71.28533 | -156.76261 | 116 ft | 68 kts | 88° |
| 2026-04-23 19:44 | 71.28525 | -156.74672 | 387 ft | 76 kts | 86° |
| 2026-04-23 19:44 | 71.28529 | -156.73054 | 772 ft | 72 kts | 85° |
| 2026-04-23 19:45 | 71.28551 | -156.71410 | 1090 ft | 77 kts | 88° |
| 2026-04-23 19:45 | 71.28579 | -156.69893 | 1352 ft | 66 kts | 89° |
| 2026-04-23 19:45 | 71.28604 | -156.68488 | 1499 ft | 66 kts | 87° |
| 2026-04-23 19:45 | 71.28763 | -156.67133 | 1636 ft | 71 kts | 63° |
| 2026-04-23 19:46 | 71.29239 | -156.66360 | 1748 ft | 89 kts | 20° |
| 2026-04-23 19:46 | 71.29861 | -156.67186 | 1845 ft | 112 kts | 323° |
| 2026-04-23 19:46 | 71.30217 | -156.69282 | 2053 ft | 110 kts | 286° |
| 2026-04-23 19:46 | 71.30193 | -156.71729 | 2145 ft | 112 kts | 254° |
| 2026-04-23 19:47 | 71.29987 | -156.74036 | 2457 ft | 111 kts | 245° |
| 2026-04-23 19:47 | 71.29649 | -156.76186 | 2768 ft | 107 kts | 231° |
| 2026-04-23 19:47 | 71.29237 | -156.78120 | 3037 ft | 109 kts | 228° |
| 2026-04-23 19:47 | 71.28824 | -156.80054 | 3347 ft | 107 kts | 228° |
| 2026-04-23 19:48 | 71.28418 | -156.82008 | 3611 ft | 107 kts | 231° |
| 2026-04-23 19:48 | 71.28022 | -156.84009 | 3824 ft | 109 kts | 231° |
| 2026-04-23 19:48 | 71.27617 | -156.85946 | 4082 ft | 107 kts | 229° |
| 2026-04-23 19:48 | 71.27198 | -156.87854 | 4297 ft | 107 kts | 228° |
| 2026-04-23 19:49 | 71.26768 | -156.89758 | 4538 ft | 106 kts | 227° |
| 2026-04-23 19:49 | 71.26332 | -156.91582 | 4761 ft | 106 kts | 225° |
| 2026-04-23 19:49 | 71.25882 | -156.93415 | 4981 ft | 106 kts | 225° |
| 2026-04-23 19:49 | 71.25430 | -156.95220 | 5189 ft | 106 kts | 224° |
| 2026-04-23 19:50 | 71.24971 | -156.97019 | 5412 ft | 104 kts | 224° |
| 2026-04-23 19:50 | 71.24525 | -156.98764 | 5647 ft | 102 kts | 224° |
| 2026-04-23 19:50 | 71.24083 | -157.00470 | 5872 ft | 101 kts | 223° |
| 2026-04-23 19:50 | 71.23635 | -157.02169 | 6075 ft | 102 kts | 224° |
| 2026-04-23 19:51 | 71.23194 | -157.03908 | 6282 ft | 102 kts | 224° |
| 2026-04-23 19:51 | 71.22758 | -157.05641 | 6481 ft | 103 kts | 225° |
| 2026-04-23 19:51 | 71.22325 | -157.07412 | 6668 ft | 104 kts | 226° |
| 2026-04-23 19:51 | 71.21891 | -157.09218 | 6854 ft | 103 kts | 226° |
| 2026-04-23 19:52 | 71.21460 | -157.11003 | 7024 ft | 103 kts | 225° |
| 2026-04-23 19:52 | 71.21005 | -157.12705 | 7195 ft | 102 kts | 224° |
| 2026-04-23 19:52 | 71.20561 | -157.14406 | 7370 ft | 101 kts | 224° |
| 2026-04-23 19:52 | 71.20121 | -157.16060 | 7567 ft | 98 kts | 222° |
| 2026-04-23 19:53 | 71.19699 | -157.17696 | 7720 ft | 101 kts | 224° |
| 2026-04-23 19:53 | 71.19244 | -157.19423 | 7861 ft | 100 kts | 224° |
| 2026-04-23 19:53 | 71.18815 | -157.21057 | 8073 ft | 95 kts | 221° |
| 2026-04-23 19:53 | 71.18406 | -157.22606 | 8258 ft | 93 kts | 222° |
| 2026-04-23 19:54 | 71.18006 | -157.24187 | 8434 ft | 92 kts | 223° |
| 2026-04-23 19:54 | 71.17599 | -157.25687 | 8600 ft | 90 kts | 220° |
| 2026-04-23 19:54 | 71.17189 | -157.27077 | 8800 ft | 85 kts | 217° |
| 2026-04-23 19:54 | 71.16780 | -157.28362 | 8970 ft | 83 kts | 216° |
| 2026-04-23 19:55 | 71.16401 | -157.29609 | 9166 ft | 77 kts | 215° |
| 2026-04-23 19:55 | 71.16012 | -157.30794 | 9274 ft | 81 kts | 213° |
| 2026-04-23 19:55 | 71.15612 | -157.31909 | 9447 ft | 76 kts | 212° |
| 2026-04-23 19:55 | 71.15218 | -157.32899 | 9606 ft | 71 kts | 206° |
| 2026-04-23 19:56 | 71.14810 | -157.33790 | 9734 ft | 69 kts | 206° |
| 2026-04-23 19:56 | 71.14431 | -157.34665 | 9851 ft | 70 kts | 208° |
| 2026-04-23 19:56 | 71.14067 | -157.35602 | 9973 ft | 68 kts | 211° |
| 2026-04-23 19:56 | 71.13720 | -157.36618 | 10051 ft | 70 kts | 214° |
| 2026-04-23 19:57 | 71.13354 | -157.37486 | 10163 ft | 61 kts | 205° |
| 2026-04-23 19:57 | 71.12975 | -157.38197 | 10196 ft | 64 kts | 201° |
| 2026-04-23 19:57 | 71.12574 | -157.38919 | 10220 ft | 66 kts | 202° |
| 2026-04-23 19:57 | 71.12163 | -157.39574 | 10273 ft | 65 kts | 201° |
| 2026-04-23 19:58 | 71.11768 | -157.40161 | 10332 ft | 61 kts | 197° |
| 2026-04-23 19:58 | 71.11356 | -157.40447 | 10350 ft | 62 kts | 175° |
| 2026-04-23 19:58 | 71.10905 | -157.40303 | 10361 ft | 64 kts | 174° |
| 2026-04-23 19:58 | 71.10541 | -157.40040 | 10514 ft | 37 kts | 146° |
| 2026-04-23 19:59 | 71.10160 | -157.39139 | 10146 ft | 83 kts | 175° |
| 2026-04-23 19:59 | 71.09615 | -157.39691 | 10139 ft | 86 kts | 205° |
| 2026-04-23 19:59 | 71.09109 | -157.40665 | 10137 ft | 86 kts | 210° |
| 2026-04-23 19:59 | 71.08599 | -157.41822 | 9966 ft | 99 kts | 214° |
| 2026-04-23 20:00 | 71.07990 | -157.42806 | 9883 ft | 94 kts | 194° |
| 2026-04-23 20:00 | 71.07368 | -157.43232 | 9510 ft | 91 kts | 189° |
| 2026-04-23 20:00 | 71.06880 | -157.43603 | 9555 ft | 46 kts | 192° |
| 2026-04-23 20:00 | 71.06525 | -157.43404 | 8903 ft | 85 kts | 142° |
| 2026-04-23 20:01 | 71.06008 | -157.41931 | 7967 ft | 111 kts | 138° |
| 2026-04-23 20:01 | 71.05427 | -157.40249 | 6980 ft | 115 kts | 136° |
| 2026-04-23 20:01 | 71.04798 | -157.38472 | 5335 ft | 131 kts | 134° |
| 2026-04-23 20:01 | 71.04166 | -157.36516 | 3830 ft | 127 kts | 130° |
| 2026-04-23 20:02 | 71.03561 | -157.34650 | 2500 ft | 120 kts | 132° |
| 2026-04-23 20:02 | 71.03200 | -157.32586 | 1172 ft | 111 kts | 108° |
| 2026-04-23 20:02 | 71.02952 | -157.30628 | 634 ft | 86 kts | 103° |
| 2026-04-23 20:02 | 71.02959 | -157.28963 | 177 ft | 73 kts | 66° |
| 2026-04-23 20:03 | 71.03292 | -157.28155 | 37 ft | 41 kts | 41° |
| 2026-04-23 20:03 | 71.03380 | -157.27966 | 31 ft | 0 kts | 23° |